createdAt,value
2019-01-04T00:01:41.134Z,101931.53
2019-01-04T00:06:46.768Z,101927.75
2019-01-04T00:11:58.476Z,101939.71
2019-01-04T00:17:03.879Z,101944.77
2019-01-04T00:22:22.696Z,101940.88
2019-01-04T00:27:27.823Z,101941.86
2019-01-04T00:32:57.080Z,101944.30
2019-01-04T00:38:03.084Z,101945.59
2019-01-04T00:43:08.200Z,101957.19
2019-01-04T00:48:13.489Z,101958.31
2019-01-04T00:53:18.864Z,101963.03
2019-01-04T00:59:03.740Z,101954.81
2019-01-04T01:04:53.074Z,101962.62
2019-01-04T01:10:33.652Z,101970.70
2019-01-04T01:16:08.504Z,101970.88
2019-01-04T01:21:50.600Z,101965.45
2019-01-04T01:27:54.390Z,101972.14
2019-01-04T01:33:33.810Z,101960.41
2019-01-04T01:39:17.751Z,101949.66
2019-01-04T01:44:54.562Z,101953.58
2019-01-04T01:50:58.710Z,101948.97
2019-01-04T01:56:04.320Z,101949.11
2019-01-04T02:01:09.414Z,101955.33
2019-01-04T02:06:14.490Z,101961.67
2019-01-04T02:11:20.237Z,101957.30
2019-01-04T02:16:25.593Z,101965.37
2019-01-04T02:21:30.729Z,101960.05
2019-01-04T02:26:35.831Z,101966.16
2019-01-04T02:31:41.426Z,101958.69
2019-01-04T02:36:46.874Z,101954.48
2019-01-04T02:41:52.140Z,101949.58
2019-01-04T02:46:57.242Z,101946.27
2019-01-04T02:52:02.739Z,101937.52
2019-01-04T02:57:07.792Z,101938.16
2019-01-04T03:02:12.842Z,101939.47
2019-01-04T03:07:18.307Z,101930.12
2019-01-04T03:12:23.344Z,101936.16
2019-01-04T03:17:28.453Z,101932.51
2019-01-04T03:22:33.532Z,101917.55
2019-01-04T03:27:38.739Z,101913.08
2019-01-04T03:32:43.759Z,101910.55
2019-01-04T03:37:48.742Z,101908.91
2019-01-04T03:42:53.787Z,101901.87
2019-01-04T03:48:01.099Z,101900.08
2019-01-04T03:53:06.203Z,101895.45
2019-01-04T03:58:12.625Z,101892.47
2019-01-04T04:03:17.735Z,101885.33
2019-01-04T04:08:22.850Z,101886.11
2019-01-04T04:13:28.172Z,101881.64
2019-01-04T04:18:33.218Z,101875.08
2019-01-04T04:23:38.365Z,101866.40
2019-01-04T04:28:44.185Z,101865.92
2019-01-04T04:33:49.221Z,101864.34
2019-01-04T04:38:54.359Z,101843.81
2019-01-04T04:43:59.471Z,101827.79
2019-01-04T04:49:04.528Z,101822.77
2019-01-04T04:54:09.691Z,101821.64
2019-01-04T04:59:14.851Z,101822.61
2019-01-04T05:04:20.613Z,101830.03
2019-01-04T05:09:25.657Z,101826.28
2019-01-04T05:14:30.804Z,101816.05
2019-01-04T05:19:37.149Z,101806.24
2019-01-04T05:24:42.195Z,101804.33
2019-01-04T05:29:47.222Z,101800.08
2019-01-04T05:34:52.716Z,101813.11
2019-01-04T05:39:57.719Z,101814.92
2019-01-04T05:45:02.767Z,101815.91
2019-01-04T05:50:08.204Z,101805.31
2019-01-04T05:55:13.391Z,101809.23
2019-01-04T06:00:18.453Z,101808.06
2019-01-04T06:05:24.427Z,101808.14
2019-01-04T06:10:29.530Z,101801.92
2019-01-04T06:15:34.544Z,101811.03
2019-01-04T06:20:40.896Z,101802.45
2019-01-04T06:25:46.053Z,101797.22
2019-01-04T06:30:51.343Z,101805.15
2019-01-04T06:36:00.602Z,101789.50
2019-01-04T06:41:05.954Z,101801.79
2019-01-04T06:46:13.353Z,101792.56
2019-01-04T06:51:18.877Z,101788.19
2019-01-04T06:56:24.417Z,101799.65
2019-01-04T07:01:29.605Z,101806.06
2019-01-04T07:06:34.767Z,101802.45
2019-01-04T07:11:40.305Z,101809.00
2019-01-04T07:16:45.431Z,101800.10
2019-01-04T07:21:50.586Z,101788.32
2019-01-04T07:26:55.953Z,101793.44
2019-01-04T07:32:03.299Z,101793.03
2019-01-04T07:37:08.693Z,101794.82
2019-01-04T07:42:14.347Z,101797.77
2019-01-04T07:47:19.374Z,101790.48
2019-01-04T07:52:25.073Z,101783.91
2019-01-04T07:57:30.479Z,101787.08
2019-01-04T08:02:49.776Z,101789.69
2019-01-04T08:07:55.212Z,101773.05
2019-01-04T08:13:00.890Z,101767.11
2019-01-04T08:18:06.253Z,101770.11
2019-01-04T08:23:13.401Z,101761.64
2019-01-04T08:28:18.441Z,101762.63
2019-01-04T08:33:26.365Z,101767.74
2019-01-04T08:38:32.779Z,101758.95
2019-01-04T08:43:38.449Z,101752.16
2019-01-04T08:48:44.421Z,101737.94
2019-01-04T08:53:57.442Z,101730.37
2019-01-04T08:59:02.992Z,101721.91
2019-01-04T09:04:08.545Z,101722.47
2019-01-04T09:09:14.105Z,101715.73
2019-01-04T09:14:19.335Z,101711.78
2019-01-04T09:19:28.197Z,101710.05
2019-01-04T09:24:33.881Z,101706.97
2019-01-04T09:29:39.021Z,101707.09
2019-01-04T09:34:44.151Z,101705.34
2019-01-04T09:39:49.281Z,101719.51
2019-01-04T09:44:54.565Z,101700.75
2019-01-04T09:50:00.211Z,101696.88
2019-01-04T09:55:05.555Z,101690.87
2019-01-04T10:00:14.073Z,101651.81
2019-01-04T10:05:19.253Z,101658.64
2019-01-04T10:10:24.465Z,101655.38
2019-01-04T10:15:29.513Z,101638.13
2019-01-04T10:20:34.667Z,101618.58
2019-01-04T10:25:39.769Z,101602.84
2019-01-04T10:30:45.143Z,101583.55
2019-01-04T10:35:50.251Z,101569.25
2019-01-04T10:40:55.423Z,101558.20
2019-01-04T10:46:01.037Z,101551.56
2019-01-04T10:51:06.202Z,101537.25
2019-01-04T10:56:11.416Z,101533.64
2019-01-04T11:01:16.518Z,101521.24
2019-01-04T11:06:21.706Z,101513.28
2019-01-04T11:11:27.054Z,101496.55
2019-01-04T11:16:32.839Z,101477.47
2019-01-04T11:21:39.485Z,101476.78
2019-01-04T11:26:51.928Z,101472.95
2019-01-04T11:32:10.333Z,101461.66
2019-01-04T11:38:07.713Z,101451.55
2019-01-04T11:44:06.748Z,101432.08
2019-01-04T11:50:02.304Z,101422.38
2019-01-04T11:55:07.327Z,101407.35
2019-01-04T12:00:12.989Z,101399.37
2019-01-04T12:05:18.411Z,101416.33
2019-01-04T12:10:23.511Z,101414.71
2019-01-04T12:15:28.593Z,101395.76
2019-01-04T12:20:33.959Z,101379.81
2019-01-04T12:25:39.012Z,101374.05
2019-01-04T12:30:44.111Z,101372.13
2019-01-04T12:35:49.440Z,101353.56
2019-01-04T12:40:54.696Z,101351.45
2019-01-04T12:45:59.979Z,101345.80
2019-01-04T12:51:05.733Z,101336.61
2019-01-04T12:56:11.209Z,101310.91
2019-01-04T13:01:21.575Z,101294.16
2019-01-04T13:06:26.693Z,101284.56
2019-01-04T13:11:31.933Z,101276.39
2019-01-04T13:16:37.511Z,101260.27
2019-01-04T13:21:42.961Z,101261.95
2019-01-04T13:26:48.461Z,101234.61
2019-01-04T13:32:07.069Z,101235.22
2019-01-04T13:37:12.246Z,101244.09
2019-01-04T13:42:17.841Z,101258.62
2019-01-04T13:47:23.319Z,101256.89
2019-01-04T13:52:28.947Z,101258.60
2019-01-04T13:57:34.124Z,101259.31
2019-01-04T14:02:44.346Z,101260.63
2019-01-04T14:07:49.633Z,101269.41
2019-01-04T14:12:54.801Z,101273.86
2019-01-04T14:18:00.774Z,101273.44
2019-01-04T14:23:06.579Z,101268.50
2019-01-04T14:28:12.181Z,101277.47
2019-01-04T14:33:35.339Z,101265.88
2019-01-04T14:38:41.015Z,101256.87
2019-01-04T14:43:46.373Z,101250.72
2019-01-04T14:48:51.647Z,101242.14
2019-01-04T14:53:56.749Z,101244.46
2019-01-04T14:59:02.072Z,101236.89
2019-01-04T15:04:07.504Z,101232.27
2019-01-04T15:09:12.727Z,101227.80
2019-01-04T15:14:17.917Z,101216.60
2019-01-04T15:19:23.073Z,101214.00
2019-01-04T15:24:28.428Z,101212.38
2019-01-04T15:29:34.622Z,101197.19
2019-01-04T15:34:39.900Z,101202.13
2019-01-04T15:39:45.178Z,101213.44
2019-01-04T15:44:50.393Z,101209.01
2019-01-04T15:49:55.553Z,101202.45
2019-01-04T15:55:00.725Z,101184.48
2019-01-04T16:00:07.856Z,101178.61
2019-01-04T16:05:13.134Z,101163.60
2019-01-04T16:10:18.726Z,101151.00
2019-01-04T16:15:24.206Z,101151.30
2019-01-04T16:20:29.490Z,101142.92
2019-01-04T16:25:34.523Z,101149.48
2019-01-04T16:30:40.158Z,101151.40
2019-01-04T16:35:45.334Z,101128.59
2019-01-04T16:40:50.582Z,101137.37
2019-01-04T16:45:55.737Z,101124.25
2019-01-04T16:51:01.887Z,101112.94
2019-01-04T16:56:07.230Z,101120.81
2019-01-04T17:01:12.498Z,101114.03
2019-01-04T17:06:17.764Z,101130.81
2019-01-04T17:11:23.113Z,101110.77
2019-01-04T17:16:28.811Z,101102.50
2019-01-04T17:21:34.106Z,101110.09
2019-01-04T17:26:39.800Z,101111.41
2019-01-04T17:31:45.317Z,101116.39
2019-01-04T17:36:50.780Z,101101.45
2019-01-04T17:42:05.272Z,101124.87
2019-01-04T17:47:10.838Z,101125.70
2019-01-04T17:52:16.198Z,101120.72
2019-01-04T17:57:22.004Z,101116.52
2019-01-04T18:02:27.200Z,101118.52
2019-01-04T18:07:32.800Z,101120.97
2019-01-04T18:12:38.768Z,101128.28
2019-01-04T18:17:44.680Z,101119.09
2019-01-04T18:22:49.918Z,101131.43
2019-01-04T18:27:55.279Z,101138.59
2019-01-04T18:33:01.018Z,101140.31
2019-01-04T18:38:06.298Z,101141.01
2019-01-04T18:43:12.289Z,101132.57
2019-01-04T18:48:17.748Z,101121.89
2019-01-04T18:53:24.005Z,101119.36
2019-01-04T18:58:29.578Z,101119.45
2019-01-04T19:03:34.841Z,101123.60
2019-01-04T19:08:40.231Z,101123.77
2019-01-04T19:13:46.240Z,101129.38
2019-01-04T19:18:52.790Z,101125.86
2019-01-04T19:23:58.112Z,101128.60
2019-01-04T19:29:05.200Z,101123.45
2019-01-04T19:34:15.720Z,101127.42
2019-01-04T19:39:20.863Z,101121.70
2019-01-04T19:44:26.218Z,101120.08
2019-01-04T19:49:31.838Z,101111.41
2019-01-04T19:54:37.750Z,101122.43
2019-01-04T19:59:44.396Z,101101.94
2019-01-04T20:04:49.809Z,101105.16
2019-01-04T20:10:48.630Z,101113.20
2019-01-04T20:16:36.132Z,101100.92
2019-01-04T20:21:59.210Z,101104.00
2019-01-04T20:27:23.608Z,101094.88
2019-01-04T20:32:53.678Z,101086.62
2019-01-04T20:38:30.070Z,101087.48
2019-01-04T20:44:00.896Z,101087.18
2019-01-04T20:49:23.969Z,101085.86
2019-01-04T20:54:47.658Z,101062.50
2019-01-04T21:00:13.216Z,101065.98
2019-01-04T21:05:42.824Z,101066.58
2019-01-04T21:11:22.339Z,101072.47
2019-01-04T21:16:45.432Z,101064.59
2019-01-04T21:28:30.438Z,101035.03
2019-01-04T21:33:53.654Z,101020.13
2019-01-04T21:39:20.844Z,101013.71
2019-01-04T21:44:57.078Z,101018.30
2019-01-04T21:50:20.430Z,101003.80
2019-01-04T21:55:42.958Z,100999.86
2019-01-04T22:01:25.896Z,100991.38
2019-01-04T22:06:52.802Z,100990.70
2019-01-04T22:12:19.840Z,100974.30
2019-01-04T22:17:45.668Z,100982.19
2019-01-04T22:23:30.150Z,100981.66
2019-01-04T22:29:00.546Z,100965.89
2019-01-04T22:34:32.906Z,100966.56
2019-01-04T22:40:07.702Z,100956.63
2019-01-04T22:45:27.395Z,100958.02
2019-01-04T22:50:50.361Z,100950.20
2019-01-04T22:56:18.640Z,100934.44
2019-01-04T23:01:59.780Z,100926.84
2019-01-04T23:07:41.980Z,100918.41
2019-01-04T23:13:15.887Z,100917.00
2019-01-04T23:18:55.296Z,100916.64
2019-01-04T23:24:18.264Z,100896.05
2019-01-04T23:29:53.458Z,100894.87
2019-01-04T23:35:18.409Z,100902.17
2019-01-04T23:40:57.780Z,100900.40
2019-01-04T23:46:27.370Z,100890.34
2019-01-04T23:51:54.288Z,100877.92
2019-01-04T23:57:24.167Z,100865.44
